< Typhoon 202115 2021 Season Typhoon 202117 >
Typhoon 202116 (MINDULLE)
General InformationTrack Information on Google MapsDetailed Wind InformationForecast History on Google MapsAccess Analytics MapList of All Images || NewsDisaster Info.WeblogTrackbackTyphoon FrontTwiphoonTyphoon Now!Typhoon ImaginationJMA Disaster Info. XMLResourceGoogle EarthGE AnimationAtom FeedGeoJSON
Detalied Best Track (Time Zone = UTC)
Year Month Day Hour Lat. Long. Pressure (hPa) Wind (kt) Class Image Chart
2021 9 22 12 11.2 148.6 1008 0 2 Image Chart
2021 9 22 18 12.0 147.7 1006 0 2 Image Chart
2021 9 23 00 12.7 146.2 1006 0 2 Image Chart
2021 9 23 06 13.3 144.5 1004 0 2 Image Chart
2021 9 23 12 13.6 143.3 1002 35 3 Image Chart
2021 9 23 18 14.1 142.0 1002 35 3 Image Chart
2021 9 24 00 14.5 141.1 998 40 3 Image Chart
2021 9 24 06 15.2 140.3 994 45 3 Image Chart
2021 9 24 12 15.9 139.3 992 50 4 Image Chart
2021 9 24 18 16.6 138.6 985 60 4 Image Chart
2021 9 25 00 17.1 138.1 975 70 5 Image Chart
2021 9 25 06 17.7 137.7 960 80 5 Image Chart
2021 9 25 12 18.2 137.4 955 85 5 Image Chart
2021 9 25 18 18.5 137.0 955 85 5 Image Chart
2021 9 26 00 18.6 136.8 935 100 5 Image Chart
2021 9 26 06 18.8 136.7 920 105 5 Image Chart
2021 9 26 12 19.0 136.7 920 105 5 Image Chart
2021 9 26 18 19.4 136.7 920 105 5 Image Chart
2021 9 27 00 19.6 136.7 935 95 5 Image Chart
2021 9 27 06 19.9 136.6 950 85 5 Image Chart
2021 9 27 12 20.2 136.4 950 85 5 Image Chart
2021 9 27 18 20.5 136.3 950 85 5 Image Chart
2021 9 28 00 21.0 136.1 950 85 5 Image Chart
2021 9 28 06 21.6 135.7 950 85 5 Image Chart
2021 9 28 12 21.9 135.4 950 85 5 Image Chart
2021 9 28 18 22.6 135.5 945 85 5 Image Chart
2021 9 29 00 23.4 135.4 945 85 5 Image Chart
2021 9 29 06 24.3 135.4 935 90 5 Image Chart
2021 9 29 12 25.0 135.6 935 90 5 Image Chart
2021 9 29 18 25.8 135.9 935 90 5 Image Chart
2021 9 30 00 26.6 136.4 935 90 5 Image Chart
2021 9 30 06 28.0 137.2 945 85 5 Image Chart
2021 9 30 12 29.1 138.1 945 85 5 Image Chart
2021 9 30 15 29.8 138.6 945 85 5 Image Chart
2021 9 30 18 30.4 139.2 945 85 5 Image Chart
2021 9 30 21 31.1 140.0 945 85 5 Image Chart
2021 10 1 00 31.9 140.7 950 80 5 Image Chart
2021 10 1 03 32.8 141.4 950 80 5 Image Chart
2021 10 1 06 33.7 142.2 960 75 5 Image Chart
2021 10 1 09 34.7 142.8 960 75 5 Image Chart
2021 10 1 12 35.6 143.9 965 70 5 Image Chart
2021 10 1 18 37.2 145.6 970 65 5 Image Chart
2021 10 2 00 39.4 147.8 976 0 6 Image Chart
2021 10 2 06 41.6 150.1 976 0 6 Image Chart
2021 10 2 12 43.8 152.6 976 0 6 Image Chart
2021 10 2 18 46.0 155.5 980 0 6 Image Chart
2021 10 3 00 48.8 157.9 978 0 6 Image Chart
2021 10 3 06 51.2 160.1 976 0 6 Image Chart
2021 10 3 12 53.6 162.2 968 0 6 Image Chart
2021 10 3 18 55.6 164.3 964 0 6 Image Chart
2021 10 4 00 57.1 166.1 964 0 6 Image Chart
2021 10 4 06 58.3 168.5 964 0 6 Image Chart
2021 10 4 12 58.9 169.8 964 0 6 Image Chart
2021 10 4 18 59.3 171.3 968 0 6 Image Chart
2021 10 5 00 59.6 173.4 972 0 6 Image Chart
2021 10 5 06 59.9 175.4 976 0 6 Image Chart
2021 10 5 12 60.4 177.9 980 0 6 Image Chart
Japan Meteorological Agency Best Track Data | Correction Date : 2021-12-25
< Typhoon 202115 2021 Season Typhoon 202117 >

Help